Time;durP1;ratioP1;P1;durP2;ratioP2;P2;SDS_P1;SDS_P2;PMS_P1;PMS_P2;Temp;Humidity;BMP_temperature;BMP_pressure;BME280_temperature;BME280_humidity;BME280_pressure;Samples;Min_cycle;Max_cycle;Signal;HPM_P1;HPM_P2
2022/03/30 00:01:23;;;;;;;8.85;4.40;;;;;;;8.12;67.49;100978.91;5075595;27;100976;-37
2022/03/30 00:03:49;;;;;;;11.10;4.43;;;;;;;8.00;68.07;100970.47;5094568;27;97898;-36
2022/03/30 00:06:14;;;;;;;11.52;5.25;;;;;;;8.01;67.62;100972.25;5095049;27;96589;-36
2022/03/30 00:08:41;;;;;;;11.52;3.85;;;;;;;8.02;68.10;100971.28;5094849;27;96738;-36
2022/03/30 00:11:06;;;;;;;11.60;5.10;;;;;;;8.01;67.71;100960.59;5094281;27;97933;-36
2022/03/30 00:13:31;;;;;;;6.30;3.72;;;;;;;8.05;68.13;100972.94;5093343;27;128382;-36
2022/03/30 00:15:56;;;;;;;10.73;4.38;;;;;;;8.02;67.66;100963.19;5094971;27;96490;-36
2022/03/30 00:18:22;;;;;;;13.82;4.53;;;;;;;7.99;67.55;100960.66;5093837;27;118511;-36
2022/03/30 00:20:47;;;;;;;11.85;4.32;;;;;;;7.93;67.68;100954.66;5093826;27;120814;-36
2022/03/30 00:23:13;;;;;;;14.98;5.18;;;;;;;7.91;68.28;100961.97;5094480;27;97839;-36
2022/03/30 00:25:39;;;;;;;10.68;4.05;;;;;;;7.94;68.19;100964.53;5094159;27;96594;-36
2022/03/30 00:28:05;;;;;;;7.50;3.70;;;;;;;7.85;68.12;100957.75;5094536;27;96792;-36
2022/03/30 00:30:31;;;;;;;13.20;4.15;;;;;;;7.87;68.36;100955.84;5058654;27;100890;-36
2022/03/30 00:32:56;;;;;;;10.77;3.65;;;;;;;7.84;67.64;100961.38;5075262;27;100992;-36
2022/03/30 00:35:22;;;;;;;11.40;4.00;;;;;;;7.77;68.59;100959.91;5094369;27;96465;-36
2022/03/30 00:37:48;;;;;;;8.05;4.10;;;;;;;7.76;67.98;100971.66;5075747;27;96677;-36
2022/03/30 00:40:15;;;;;;;9.15;3.88;;;;;;;7.69;68.74;100965.69;5075488;27;101338;-36
2022/03/30 00:42:41;;;;;;;11.75;5.07;;;;;;;7.70;68.51;100963.84;5075802;27;100838;-36
2022/03/30 00:45:09;;;;;;;12.20;4.75;;;;;;;7.60;68.47;100955.34;5075659;27;96590;-36
2022/03/30 00:47:35;;;;;;;11.55;4.80;;;;;;;7.58;68.77;100962.63;5075190;27;96904;-37
2022/03/30 00:50:00;;;;;;;12.55;4.25;;;;;;;7.59;68.95;100962.56;5093353;27;98759;-36
2022/03/30 00:52:25;;;;;;;10.70;5.05;;;;;;;7.64;68.25;100965.91;5093783;27;99082;-36
2022/03/30 00:54:51;;;;;;;7.63;3.42;;;;;;;7.54;69.01;100955.66;5093940;27;101827;-36
2022/03/30 00:57:21;;;;;;;8.00;4.15;;;;;;;7.57;68.94;100967.16;5075432;27;96744;-36
2022/03/30 00:59:46;;;;;;;10.48;4.55;;;;;;;7.55;69.32;100963.63;5075286;27;99147;-36
2022/03/30 01:02:13;;;;;;;6.72;3.63;;;;;;;7.55;68.83;100958.25;5093750;27;97891;-36
2022/03/30 01:04:39;;;;;;;10.43;3.90;;;;;;;7.48;68.91;100940.63;5075093;27;96611;-36
2022/03/30 01:07:04;;;;;;;10.38;4.55;;;;;;;7.47;69.39;100952.38;5094063;27;96751;-36
2022/03/30 01:09:30;;;;;;;11.70;3.80;;;;;;;7.41;69.53;100952.63;5074490;27;99784;-36
2022/03/30 01:11:56;;;;;;;7.78;4.43;;;;;;;7.35;69.08;100929.56;5094077;27;97293;-36
2022/03/30 01:14:23;;;;;;;9.93;4.65;;;;;;;7.42;68.98;100943.63;5074548;27;97351;-36
2022/03/30 01:16:48;;;;;;;6.93;2.95;;;;;;;7.38;69.26;100933.94;5075149;27;97510;-36
2022/03/30 01:19:14;;;;;;;14.27;5.07;;;;;;;7.32;68.73;100918.06;5093306;27;99582;-36
2022/03/30 01:21:42;;;;;;;9.90;4.53;;;;;;;7.29;69.04;100913.66;5093407;27;99152;-36
2022/03/30 01:24:09;;;;;;;10.00;4.97;;;;;;;7.35;68.91;100923.31;5093565;27;96444;-36
2022/03/30 01:26:35;;;;;;;6.25;3.22;;;;;;;7.28;69.75;100917.31;5075042;27;96851;-36
2022/03/30 01:32:24;;;;;;;12.93;4.43;;;;;;;7.27;69.10;100914.69;5057370;27;101292;-36
2022/03/30 01:34:32;;;;;;;6.47;3.53;;;;;;;7.17;69.43;100901.63;5094018;27;96581;-36
2022/03/30 01:36:57;;;;;;;6.05;3.40;;;;;;;7.23;69.47;100912.16;5074834;27;96770;-36
2022/03/30 01:39:23;;;;;;;14.57;5.13;;;;;;;7.20;69.20;100919.50;5073045;27;126956;-36
2022/03/30 01:41:48;;;;;;;13.38;4.95;;;;;;;7.19;69.51;100917.75;5092443;27;127207;-36
2022/03/30 01:44:13;;;;;;;10.80;4.15;;;;;;;7.12;69.89;100909.06;5074288;27;118217;-36
2022/03/30 01:46:38;;;;;;;7.55;4.32;;;;;;;7.15;69.39;100900.88;5095546;27;120230;-36
2022/03/30 01:49:04;;;;;;;11.10;5.20;;;;;;;7.23;69.54;100911.28;5096364;27;99230;-36
2022/03/30 01:51:29;;;;;;;8.95;4.22;;;;;;;7.20;69.02;100911.44;5096086;27;126688;-36
2022/03/30 01:53:54;;;;;;;9.40;3.05;;;;;;;7.06;70.20;100892.34;5096976;27;96894;-36
2022/03/30 01:56:21;;;;;;;9.38;4.03;;;;;;;7.14;69.46;100904.50;5096485;27;116166;-36
2022/03/30 01:58:47;;;;;;;5.80;3.67;;;;;;;7.17;69.89;100904.34;5096768;27;97896;-36
2022/03/30 02:01:13;;;;;;;8.23;4.05;;;;;;;7.18;70.09;100895.31;5096950;27;97756;-36
2022/03/30 02:03:39;;;;;;;9.20;3.97;;;;;;;7.06;69.68;100878.88;5077596;27;97090;-36
2022/03/30 02:06:06;;;;;;;9.75;5.13;;;;;;;7.07;69.27;100880.59;5078023;27;96772;-36
2022/03/30 02:08:32;;;;;;;12.00;3.72;;;;;;;7.14;69.78;100891.03;5096369;27;99271;-36
2022/03/30 02:10:58;;;;;;;6.70;4.35;;;;;;;7.15;69.55;100895.47;5096024;27;97852;-36
2022/03/30 02:13:23;;;;;;;7.15;3.50;;;;;;;7.12;69.73;100890.22;5078029;27;96547;-36
2022/03/30 02:15:48;;;;;;;11.38;4.85;;;;;;;7.05;69.07;100888.75;5096812;27;96699;-36
2022/03/30 02:18:14;;;;;;;10.70;4.63;;;;;;;6.92;69.59;100884.88;5096267;27;99405;-36
2022/03/30 02:20:41;;;;;;;12.88;4.78;;;;;;;6.84;69.82;100892.44;5096861;27;97945;-36
2022/03/30 02:23:06;;;;;;;11.82;5.93;;;;;;;6.83;69.86;100896.06;5096524;27;96484;-36
2022/03/30 02:25:32;;;;;;;10.35;5.10;;;;;;;6.77;69.99;100891.84;5096651;27;96760;-36
2022/03/30 02:27:57;;;;;;;7.97;4.43;;;;;;;6.79;69.67;100890.84;5076056;27;127025;-36
2022/03/30 02:30:22;;;;;;;13.63;5.10;;;;;;;6.66;69.96;100870.78;5095782;27;120017;-36
2022/03/30 02:32:48;;;;;;;11.82;4.65;;;;;;;6.61;69.78;100874.63;5096457;27;96462;-36
2022/03/30 02:35:14;;;;;;;11.43;4.07;;;;;;;6.62;70.09;100871.00;5077706;27;96836;-36
2022/03/30 02:37:39;;;;;;;6.35;3.83;;;;;;;6.64;70.69;100861.91;5095895;27;99460;-36
2022/03/30 02:40:05;;;;;;;18.67;5.25;;;;;;;6.58;70.08;100862.19;5096040;27;97800;-36
2022/03/30 02:42:30;;;;;;;9.35;4.20;;;;;;;6.46;70.09;100843.88;5096036;27;96441;-36
2022/03/30 02:44:56;;;;;;;10.05;4.93;;;;;;;6.51;70.69;100866.09;5095671;27;118988;-36
2022/03/30 02:48:17;;;;;;;6.97;3.58;;;;;;;6.41;70.94;100856.66;5095465;27;109300;-36
2022/03/30 02:50:07;;;;;;;7.63;4.25;;;;;;;6.41;70.78;100851.28;5095897;27;98950;-36
2022/03/30 02:52:32;;;;;;;8.85;4.25;;;;;;;6.41;70.61;100852.16;5095431;27;96646;-36
2022/03/30 02:54:57;;;;;;;10.10;3.40;;;;;;;6.38;70.44;100844.22;5096078;27;96922;-36
2022/03/30 02:57:22;;;;;;;17.50;4.95;;;;;;;6.41;70.93;100860.22;5093512;27;126610;-36
2022/03/30 02:59:48;;;;;;;10.95;3.67;;;;;;;6.40;70.88;100852.25;5095042;27;122624;-36
2022/03/30 03:02:13;;;;;;;14.75;6.07;;;;;;;6.34;70.32;100837.22;5095114;27;121650;-36
2022/03/30 03:04:39;;;;;;;11.02;3.33;;;;;;;6.37;70.38;100837.97;5095379;27;99592;-37
2022/03/30 03:07:05;;;;;;;9.57;3.63;;;;;;;6.34;70.50;100830.06;5095484;27;97877;-36
2022/03/30 03:09:30;;;;;;;8.40;4.35;;;;;;;6.30;70.91;100832.94;5095200;27;99700;-36
2022/03/30 03:11:55;;;;;;;7.30;3.72;;;;;;;6.23;70.19;100824.28;5095185;27;106133;-36
2022/03/30 03:14:21;;;;;;;7.97;4.57;;;;;;;6.19;71.29;100829.84;5095691;27;98504;-36
2022/03/30 03:16:46;;;;;;;9.13;4.22;;;;;;;6.20;70.79;100831.59;5095062;27;97974;-36
2022/03/30 03:19:12;;;;;;;7.47;3.58;;;;;;;6.20;70.70;100834.28;5095198;27;109245;-36
2022/03/30 03:21:37;;;;;;;7.53;3.97;;;;;;;6.23;70.77;100837.72;5095320;27;96695;-36
2022/03/30 03:24:03;;;;;;;6.65;3.88;;;;;;;6.12;70.97;100822.03;5095430;27;96828;-36
2022/03/30 03:26:28;;;;;;;9.45;4.03;;;;;;;6.15;70.42;100829.13;5076738;27;101647;-36
2022/03/30 03:28:53;;;;;;;7.10;4.50;;;;;;;6.19;70.70;100838.78;5095257;27;97398;-36
2022/03/30 03:31:19;;;;;;;8.95;3.38;;;;;;;6.20;70.26;100835.16;5095509;27;96591;-36
2022/03/30 03:33:44;;;;;;;11.43;3.92;;;;;;;6.22;70.45;100835.97;5095565;27;96782;-36
2022/03/30 03:36:09;;;;;;;7.38;3.92;;;;;;;6.25;70.42;100843.03;5095109;27;100831;-36
2022/03/30 03:38:35;;;;;;;10.38;4.18;;;;;;;6.14;70.25;100821.97;5095303;27;97768;-36
2022/03/30 03:41:00;;;;;;;4.63;2.88;;;;;;;6.14;71.04;100830.91;5094905;27;96594;-36
2022/03/30 03:43:25;;;;;;;7.50;3.95;;;;;;;6.12;70.65;100827.41;5095156;27;101739;-36
2022/03/30 03:45:51;;;;;;;5.97;3.13;;;;;;;6.18;70.45;100844.25;5094059;27;126025;-36
2022/03/30 03:48:16;;;;;;;8.90;4.15;;;;;;;6.09;70.70;100832.94;5094917;27;99128;-36
2022/03/30 03:50:42;;;;;;;18.92;4.82;;;;;;;6.14;71.10;100846.19;5094045;27;122312;-36
2022/03/30 03:53:08;;;;;;;16.23;5.22;;;;;;;6.06;71.07;100822.31;5095237;27;96689;-36
2022/03/30 03:55:34;;;;;;;7.72;3.85;;;;;;;6.10;70.98;100832.00;5095091;27;97788;-36
2022/03/30 03:58:00;;;;;;;8.88;3.67;;;;;;;6.09;70.40;100840.13;5095211;27;97855;-36
2022/03/30 04:00:25;;;;;;;9.45;4.15;;;;;;;6.07;70.82;100833.94;5076359;27;96551;-36
2022/03/30 04:02:51;;;;;;;7.03;3.58;;;;;;;6.04;71.15;100817.94;5095105;27;96824;-36
2022/03/30 04:05:16;;;;;;;9.30;3.92;;;;;;;6.08;70.77;100831.19;5093409;27;112783;-36
2022/03/30 04:07:42;;;;;;;11.55;4.10;;;;;;;6.04;71.12;100829.56;5093074;27;126022;-36
2022/03/30 04:10:09;;;;;;;6.85;3.92;;;;;;;6.06;71.00;100833.06;5093900;27;96710;-36
2022/03/30 04:12:34;;;;;;;7.95;2.95;;;;;;;6.04;70.82;100817.94;5076089;27;96765;-36
2022/03/30 04:15:00;;;;;;;11.68;4.10;;;;;;;6.04;70.83;100810.75;5094470;27;97938;-36
2022/03/30 04:17:25;;;;;;;12.35;4.90;;;;;;;6.04;70.85;100816.13;5094301;27;99422;-36
2022/03/30 04:19:50;;;;;;;16.30;3.78;;;;;;;5.92;70.61;100796.00;5094106;27;118149;-36
2022/03/30 04:22:17;;;;;;;16.75;6.28;;;;;;;5.92;70.92;100798.69;5094393;27;106811;-36
2022/03/30 04:24:42;;;;;;;12.68;5.43;;;;;;;5.98;70.71;100804.75;5075681;27;100798;-36
2022/03/30 04:27:07;;;;;;;7.35;4.05;;;;;;;5.98;70.54;100802.94;5094161;27;99255;-36
2022/03/30 04:29:33;;;;;;;7.68;3.03;;;;;;;6.03;70.75;100808.13;5093059;27;121345;-36
2022/03/30 04:31:58;;;;;;;10.88;4.57;;;;;;;6.04;70.24;100808.06;5094225;27;96802;-36
2022/03/30 04:34:24;;;;;;;20.77;3.72;;;;;;;6.01;70.99;100808.22;5093819;27;99257;-36
2022/03/30 04:36:49;;;;;;;17.92;3.95;;;;;;;5.95;70.48;100792.31;5093968;27;99340;-36
2022/03/30 04:39:14;;;;;;;7.45;4.18;;;;;;;6.00;70.73;100792.13;5093617;27;116118;-37
2022/03/30 04:41:40;;;;;;;8.77;4.32;;;;;;;5.99;70.36;100780.50;5094225;27;96836;-36
2022/03/30 04:44:05;;;;;;;9.50;4.22;;;;;;;6.03;70.12;100789.28;5094537;27;97349;-36
2022/03/30 04:46:31;;;;;;;7.15;4.22;;;;;;;6.00;70.09;100781.38;5075854;27;99436;-36
2022/03/30 04:48:56;;;;;;;20.05;4.43;;;;;;;6.02;70.40;100792.94;5094023;27;96606;-36
2022/03/30 04:51:21;;;;;;;8.50;4.15;;;;;;;6.06;70.99;100795.44;5092855;27;122522;-36
2022/03/30 04:53:46;;;;;;;10.95;4.72;;;;;;;6.04;70.52;100796.44;5074781;27;98028;-36
2022/03/30 04:56:12;;;;;;;11.75;5.15;;;;;;;5.98;70.15;100789.50;5094120;27;97783;-36
2022/03/30 04:58:37;;;;;;;11.10;3.78;;;;;;;6.02;70.57;100788.44;5093064;27;120407;-36
2022/03/30 05:01:02;;;;;;;6.53;3.70;;;;;;;5.98;69.96;100786.81;5093504;27;103067;-36
2022/03/30 05:03:28;;;;;;;18.42;4.80;;;;;;;6.03;70.41;100795.56;5093897;27;97841;-36
2022/03/30 05:05:53;;;;;;;7.25;3.38;;;;;;;6.05;70.93;100798.19;5093195;27;102137;-36
2022/03/30 05:08:18;;;;;;;13.98;3.80;;;;;;;5.97;70.38;100785.06;5074459;27;121212;-36
2022/03/30 05:10:46;;;;;;;15.73;4.43;;;;;;;6.00;70.07;100792.13;5093664;27;96960;-36
2022/03/30 05:13:12;;;;;;;7.05;3.47;;;;;;;5.95;70.85;100787.81;5074949;27;100992;-36
2022/03/30 05:15:37;;;;;;;8.35;3.22;;;;;;;5.92;70.73;100784.38;5093611;27;97742;-36
2022/03/30 05:18:03;;;;;;;6.60;3.58;;;;;;;6.00;70.63;100793.00;5093051;27;96506;-36
2022/03/30 05:20:28;;;;;;;7.47;3.97;;;;;;;5.98;70.09;100797.56;5073599;27;97409;-36
2022/03/30 05:22:54;;;;;;;15.77;4.63;;;;;;;5.91;70.51;100787.97;5093380;27;99833;-36
2022/03/30 05:25:22;;;;;;;16.55;4.60;;;;;;;5.90;70.58;100789.81;5091130;27;128354;-36
2022/03/30 05:27:47;;;;;;;11.18;5.05;;;;;;;5.89;70.15;100792.56;5093623;27;96582;-36
2022/03/30 05:30:13;;;;;;;14.95;4.03;;;;;;;5.90;70.92;100795.19;5093498;27;96870;-36
2022/03/30 05:32:44;;;;;;;6.28;3.85;;;;;;;5.88;70.29;100794.38;5074750;27;101222;-36
2022/03/30 05:35:10;;;;;;;20.00;3.58;;;;;;;5.79;71.13;100785.81;5073759;27;101284;-36
2022/03/30 05:37:36;;;;;;;7.90;4.25;;;;;;;5.79;70.66;100775.94;5089873;27;96969;-36
2022/03/30 05:40:03;;;;;;;8.35;4.32;;;;;;;5.80;70.94;100783.09;5090574;27;96937;-36
2022/03/30 05:42:29;;;;;;;9.00;4.90;;;;;;;5.85;70.92;100790.94;5091474;27;97900;-36
2022/03/30 05:44:54;;;;;;;16.08;4.60;;;;;;;5.79;70.73;100780.44;5092134;27;126214;-36
2022/03/30 05:47:19;;;;;;;4.88;3.05;;;;;;;5.77;70.85;100782.31;5093172;27;96691;-36
2022/03/30 05:49:45;;;;;;;17.10;4.47;;;;;;;5.75;71.07;100771.66;5092999;27;97839;-36
2022/03/30 05:52:10;;;;;;;7.32;4.93;;;;;;;5.80;71.20;100782.22;5090940;27;127437;-36
2022/03/30 05:54:36;;;;;;;16.50;4.38;;;;;;;5.79;71.56;100772.38;5092964;27;99100;-36
2022/03/30 05:57:02;;;;;;;14.30;5.47;;;;;;;5.75;71.36;100767.16;5074627;27;96487;-36
2022/03/30 05:59:29;;;;;;;8.75;3.78;;;;;;;5.79;71.03;100767.88;5093737;27;96714;-37
2022/03/30 06:01:55;;;;;;;8.05;4.57;;;;;;;5.72;70.84;100756.53;5108980;27;100981;-36
2022/03/30 06:04:21;;;;;;;13.80;5.43;;;;;;;5.74;71.04;100772.59;5056980;27;101041;-36
2022/03/30 06:06:46;;;;;;;21.88;4.10;;;;;;;5.74;71.59;100780.66;5092501;27;96421;-36
2022/03/30 06:09:12;;;;;;;21.50;5.20;;;;;;;5.75;71.57;100779.72;5092267;27;96858;-35
2022/03/30 06:11:37;;;;;;;12.13;4.65;;;;;;;5.72;71.34;100786.09;5073903;27;100075;-36
2022/03/30 06:14:03;;;;;;;12.73;4.05;;;;;;;5.75;71.18;100795.84;5092738;27;99106;-36
2022/03/30 06:16:29;;;;;;;12.35;4.70;;;;;;;5.72;71.78;100786.09;5093117;27;96475;-36
2022/03/30 06:18:55;;;;;;;13.77;5.30;;;;;;;5.80;71.80;100799.22;5074239;27;96774;-36
2022/03/30 06:21:21;;;;;;;5.57;3.15;;;;;;;5.83;71.45;100798.19;5108455;27;101676;-36
2022/03/30 06:23:48;;;;;;;5.82;3.35;;;;;;;5.78;70.75;100793.03;5109556;27;96596;-36
2022/03/30 06:26:14;;;;;;;17.10;4.10;;;;;;;5.83;71.41;100800.88;5092616;27;96507;-36
2022/03/30 06:28:39;;;;;;;19.63;4.38;;;;;;;5.83;70.86;100793.69;5092913;27;96703;-36
2022/03/30 06:31:05;;;;;;;18.63;5.28;;;;;;;5.80;71.29;100785.78;5091645;27;124982;-36
2022/03/30 06:33:30;;;;;;;8.00;3.80;;;;;;;5.86;71.22;100792.69;5096467;27;97763;-36
2022/03/30 06:35:56;;;;;;;21.08;4.28;;;;;;;5.92;71.01;100797.81;5096239;27;96506;-36
2022/03/30 06:38:21;;;;;;;9.32;3.85;;;;;;;5.90;70.65;100786.25;5096460;27;96732;-36
2022/03/30 06:40:47;;;;;;;10.32;5.22;;;;;;;6.02;70.39;100792.94;5095678;27;103220;-36
2022/03/30 06:43:13;;;;;;;13.40;5.93;;;;;;;6.03;70.30;100786.59;5077380;27;100683;-36
2022/03/30 06:45:39;;;;;;;8.00;4.32;;;;;;;6.19;70.26;100794.88;5111792;27;96667;-36
2022/03/30 06:48:05;;;;;;;16.58;4.13;;;;;;;6.30;69.59;100792.59;5094931;27;121709;-36
2022/03/30 06:50:32;;;;;;;7.95;3.60;;;;;;;6.41;69.12;100786.72;5111893;27;100420;-36
2022/03/30 06:52:58;;;;;;;10.15;4.68;;;;;;;6.52;69.71;100787.97;5077337;27;100683;-36
2022/03/30 06:55:23;;;;;;;6.50;2.70;;;;;;;6.66;69.03;100789.19;5095900;27;96461;-36
2022/03/30 06:57:49;;;;;;;8.48;2.90;;;;;;;6.63;69.17;100792.88;5095336;27;115726;-36
2022/03/30 07:00:15;;;;;;;11.15;4.32;;;;;;;6.64;69.58;100799.13;5076998;27;100908;-36
2022/03/30 07:02:41;;;;;;;8.57;2.97;;;;;;;6.56;69.21;100800.34;5077021;27;100952;-36
2022/03/30 07:05:06;;;;;;;6.05;2.75;;;;;;;6.52;69.09;100795.19;5094593;27;122239;-36
2022/03/30 07:10:18;;;;;;;7.95;3.97;;;;;;;6.56;69.38;100783.34;5095000;27;97141;-36
2022/03/30 07:12:46;;;;;;;9.30;4.38;;;;;;;6.72;69.00;100779.00;5095679;27;99210;-36
2022/03/30 07:15:13;;;;;;;13.35;3.97;;;;;;;6.89;68.48;100777.31;5077095;27;96621;-36
2022/03/30 07:17:53;;;;;;;7.40;3.67;;;;;;;7.12;68.36;100793.25;5095485;27;96792;-36
2022/03/30 07:20:20;;;;;;;13.43;5.47;;;;;;;7.25;67.75;100782.75;5110922;27;100801;-36
2022/03/30 07:22:47;;;;;;;10.63;4.18;;;;;;;7.42;68.06;100787.31;5076825;27;100868;-36
2022/03/30 07:25:14;;;;;;;9.90;3.83;;;;;;;7.52;67.98;100772.44;5111255;27;96740;-36
2022/03/30 07:27:41;;;;;;;9.30;5.03;;;;;;;7.60;67.36;100770.25;5095378;27;96790;-36
2022/03/30 07:30:08;;;;;;;9.15;4.72;;;;;;;7.69;67.30;100765.31;5076655;27;100915;-36
2022/03/30 07:32:34;;;;;;;12.95;5.28;;;;;;;7.81;67.16;100778.16;5111258;27;100895;-36
2022/03/30 07:35:00;;;;;;;14.52;5.82;;;;;;;7.91;67.38;100765.09;5111282;27;97077;-36
2022/03/30 07:37:25;;;;;;;11.35;4.47;;;;;;;8.11;67.04;100775.72;5095466;27;96830;-36
2022/03/30 07:39:56;;;;;;;13.82;3.20;;;;;;;8.29;66.57;100773.84;5094794;27;104775;-36
2022/03/30 07:42:21;;;;;;;10.07;4.20;;;;;;;8.38;66.40;100765.25;5093983;27;110145;-36
2022/03/30 07:44:47;;;;;;;9.52;4.07;;;;;;;8.50;66.20;100774.56;5093427;27;121303;-36
2022/03/30 07:47:12;;;;;;;18.38;5.40;;;;;;;8.58;66.16;100760.63;5094854;27;96795;-36
2022/03/30 07:49:37;;;;;;;9.88;5.05;;;;;;;8.69;65.93;100763.63;5075919;27;117283;-36
2022/03/30 07:52:04;;;;;;;13.93;4.30;;;;;;;8.82;65.88;100763.81;5094805;27;98595;-36
2022/03/30 07:54:30;;;;;;;13.40;4.20;;;;;;;8.87;65.43;100757.22;5076091;27;96590;-36
2022/03/30 07:56:55;;;;;;;12.18;5.20;;;;;;;9.02;65.45;100771.69;5110923;27;96877;-36
2022/03/30 07:59:21;;;;;;;9.45;3.45;;;;;;;9.18;65.14;100763.59;5093938;27;125796;-36
2022/03/30 08:01:46;;;;;;;13.25;5.18;;;;;;;9.32;64.82;100762.81;5094069;27;127747;-36
2022/03/30 08:04:11;;;;;;;14.07;4.70;;;;;;;9.48;64.42;100760.06;5094812;27;96773;-35
2022/03/30 08:06:37;;;;;;;12.43;3.85;;;;;;;9.52;64.37;100750.81;5094913;27;96485;-36
2022/03/30 08:09:03;;;;;;;9.77;4.60;;;;;;;9.69;63.88;100764.19;5075360;27;98101;-36
2022/03/30 08:11:29;;;;;;;14.50;4.28;;;;;;;9.77;63.82;100761.94;5075426;27;100383;-35
2022/03/30 08:13:56;;;;;;;18.80;4.28;;;;;;;9.88;63.60;100755.84;5094847;27;96401;-36
2022/03/30 08:16:22;;;;;;;12.57;4.32;;;;;;;9.95;63.49;100754.53;5094511;27;96788;-36
2022/03/30 08:18:47;;;;;;;12.35;4.75;;;;;;;10.10;63.25;100765.38;5094629;27;97481;-36
2022/03/30 08:23:57;;;;;;;7.93;2.92;;;;;;;10.17;62.94;100756.78;5094717;27;96597;-36
2022/03/30 08:26:22;;;;;;;9.40;3.47;;;;;;;10.25;62.90;100752.75;5095192;27;96888;-36
2022/03/30 08:28:47;;;;;;;11.23;3.17;;;;;;;10.27;62.96;100748.97;5094091;27;100286;-36
2022/03/30 08:31:12;;;;;;;10.88;4.07;;;;;;;10.25;62.93;100750.94;5075779;27;100986;-36
2022/03/30 08:33:38;;;;;;;10.45;3.25;;;;;;;10.24;62.97;100738.34;5093675;27;96966;-36
2022/03/30 08:36:03;;;;;;;11.88;4.25;;;;;;;10.31;63.08;100752.41;5094685;27;96867;-36
2022/03/30 08:38:29;;;;;;;12.65;4.63;;;;;;;10.29;63.10;100757.91;5093996;27;98715;-36
2022/03/30 08:40:57;;;;;;;13.05;5.75;;;;;;;10.20;63.10;100748.50;5093368;27;124019;-36
2022/03/30 08:43:24;;;;;;;12.63;4.07;;;;;;;10.20;63.47;100747.59;5094197;27;96625;-36
2022/03/30 08:45:49;;;;;;;11.20;4.70;;;;;;;10.25;63.32;100741.91;5093959;27;96821;-36
2022/03/30 08:48:15;;;;;;;9.73;4.45;;;;;;;10.31;63.16;100742.44;5093672;27;99282;-36
2022/03/30 08:50:40;;;;;;;14.27;4.88;;;;;;;10.21;63.13;100735.84;5093827;27;98989;-35
2022/03/30 08:53:07;;;;;;;10.25;4.40;;;;;;;10.24;63.52;100742.88;5093544;27;112312;-36
2022/03/30 08:55:33;;;;;;;11.23;3.40;;;;;;;10.14;63.48;100739.88;5093758;27;96909;-35
2022/03/30 08:57:59;;;;;;;18.08;5.53;;;;;;;9.98;64.06;100743.50;5074782;27;100816;-36
2022/03/30 09:00:25;;;;;;;14.75;6.35;;;;;;;9.83;64.03;100743.59;5093745;27;99188;-36
2022/03/30 09:03:00;;;;;;;8.85;3.92;;;;;;;9.74;64.11;100743.16;5094011;27;96459;-36
2022/03/30 09:05:28;;;;;;;12.30;5.25;;;;;;;9.79;64.23;100729.34;5109399;27;96746;-36
2022/03/30 09:08:15;;;;;;;10.70;4.90;;;;;;;9.91;63.99;100739.44;5109615;27;103015;-36
2022/03/30 09:10:45;;;;;;;17.65;5.45;;;;;;;9.92;63.31;100737.63;5074672;27;100932;-35
2022/03/30 09:13:14;;;;;;;10.13;4.57;;;;;;;9.86;63.54;100741.56;5075192;27;96466;-36
2022/03/30 09:15:41;;;;;;;9.70;3.22;;;;;;;9.84;63.64;100726.38;5075374;27;96795;-36
2022/03/30 09:18:09;;;;;;;17.48;5.40;;;;;;;9.96;63.63;100731.03;5093642;27;98052;-36
2022/03/30 09:20:40;;;;;;;15.23;4.50;;;;;;;10.13;63.37;100736.31;5093430;27;97811;-36
2022/03/30 09:23:07;;;;;;;14.27;4.72;;;;;;;10.13;63.12;100720.06;5074685;27;97015;-35
2022/03/30 09:25:33;;;;;;;9.15;3.75;;;;;;;10.14;63.22;100729.06;5074842;27;97193;-35
2022/03/30 09:27:59;;;;;;;8.63;3.38;;;;;;;10.13;63.10;100730.91;5093216;27;99525;-35
2022/03/30 09:30:26;;;;;;;11.93;5.32;;;;;;;10.10;63.43;100727.50;5109104;27;100698;-36
2022/03/30 09:32:54;;;;;;;9.80;4.28;;;;;;;10.04;63.41;100717.94;5092070;27;97282;-36
2022/03/30 09:35:24;;;;;;;13.88;4.22;;;;;;;10.07;63.49;100731.25;5093446;27;96738;-36
2022/03/30 09:38:10;;;;;;;11.70;3.80;;;;;;;10.04;63.52;100734.16;5074684;27;100718;-36
2022/03/30 09:40:46;;;;;;;10.77;5.15;;;;;;;10.10;63.64;100732.91;5093375;27;99298;-36
2022/03/30 09:43:19;;;;;;;10.45;3.78;;;;;;;10.17;63.08;100728.84;5093458;27;96765;-35
2022/03/30 09:45:45;;;;;;;11.13;3.78;;;;;;;10.19;63.32;100724.22;5093335;27;96638;-36
2022/03/30 09:48:22;;;;;;;14.00;5.10;;;;;;;10.24;63.18;100719.38;5073941;27;100913;-36
2022/03/30 09:50:50;;;;;;;12.43;4.50;;;;;;;10.26;63.00;100716.59;5093338;27;97861;-35
2022/03/30 09:53:18;;;;;;;14.02;5.45;;;;;;;10.27;62.78;100716.47;5074517;27;96713;-36
2022/03/30 09:55:51;;;;;;;12.13;4.22;;;;;;;10.23;62.73;100704.13;5109089;27;96921;-36
2022/03/30 09:58:20;;;;;;;6.68;3.83;;;;;;;10.29;62.28;100711.00;5074334;27;101137;-36
2022/03/30 10:01:02;;;;;;;11.18;4.70;;;;;;;10.34;61.99;100692.63;5074471;27;100674;-36
2022/03/30 10:03:41;;;;;;;13.25;4.82;;;;;;;10.44;62.05;100692.94;5109057;27;96650;-36
2022/03/30 10:06:06;;;;;;;14.48;3.83;;;;;;;10.72;61.77;100698.31;5075651;27;96784;-36
2022/03/30 10:08:33;;;;;;;17.92;5.07;;;;;;;10.84;60.44;100702.06;5095679;27;120636;-36
2022/03/30 10:10:58;;;;;;;11.30;4.32;;;;;;;10.99;60.64;100689.38;5077221;27;100811;-36
2022/03/30 10:13:24;;;;;;;7.78;3.55;;;;;;;11.46;60.47;100697.03;5096060;27;96545;-35
2022/03/30 10:15:50;;;;;;;11.13;3.75;;;;;;;11.41;57.94;100685.63;5096748;27;96796;-36
2022/03/30 10:18:19;;;;;;;8.25;4.43;;;;;;;11.48;59.21;100696.91;5076399;27;100851;-35
2022/03/30 10:21:01;;;;;;;11.93;3.58;;;;;;;11.54;59.39;100696.50;5096349;27;97782;-35
2022/03/30 10:23:46;;;;;;;10.50;3.78;;;;;;;11.72;58.77;100694.38;5077928;27;96576;-36
2022/03/30 10:26:48;;;;;;;11.85;5.30;;;;;;;11.66;58.62;100694.81;5096240;27;114380;-36
2022/03/30 10:29:16;;;;;;;10.25;3.55;;;;;;;11.84;56.96;100692.66;5077703;27;98833;-36
2022/03/30 10:31:42;;;;;;;5.63;2.97;;;;;;;11.63;56.30;100674.19;5096430;27;99609;-36
2022/03/30 10:34:26;;;;;;;13.55;3.50;;;;;;;11.58;57.29;100680.88;5077759;27;96521;-36
2022/03/30 10:37:09;;;;;;;8.60;3.80;;;;;;;11.48;56.97;100696.91;5096521;27;96953;-35
2022/03/30 10:39:35;;;;;;;6.50;3.42;;;;;;;11.25;58.09;100674.94;5077192;27;101326;-36
2022/03/30 10:42:09;;;;;;;15.43;5.18;;;;;;;11.46;57.96;100669.91;5077439;27;100819;-35
2022/03/30 10:44:43;;;;;;;12.32;3.83;;;;;;;12.05;58.12;100690.31;5096002;27;96455;-36
2022/03/30 10:47:22;;;;;;;9.35;3.83;;;;;;;12.59;56.39;100676.50;5077445;27;97208;-36
2022/03/30 10:49:57;;;;;;;11.27;4.25;;;;;;;13.01;55.95;100663.41;5096087;27;97963;-35
2022/03/30 10:52:40;;;;;;;11.20;4.28;;;;;;;13.22;54.69;100669.09;5060228;27;101025;-36
2022/03/30 10:55:11;;;;;;;17.63;4.82;;;;;;;13.65;54.67;100678.59;5077551;27;96646;-35
2022/03/30 10:57:46;;;;;;;10.63;4.38;;;;;;;13.82;52.38;100678.13;5096052;27;101549;-36
2022/03/30 11:00:23;;;;;;;17.42;5.60;;;;;;;14.00;52.83;100667.66;5095518;27;99404;-35
2022/03/30 11:02:49;;;;;;;7.25;3.40;;;;;;;13.97;52.48;100670.66;5095926;27;97964;-36
2022/03/30 11:05:16;;;;;;;18.00;4.55;;;;;;;13.79;53.43;100664.78;5076538;27;99469;-36
2022/03/30 11:07:42;;;;;;;10.88;3.55;;;;;;;13.64;52.71;100665.97;5095553;27;96960;-36
2022/03/30 11:10:24;;;;;;;7.03;3.00;;;;;;;13.52;52.65;100663.22;5076235;27;101140;-36
2022/03/30 11:13:12;;;;;;;22.40;4.60;;;;;;;13.34;52.83;100651.00;5076945;27;100761;-36
2022/03/30 11:15:59;;;;;;;7.32;3.30;;;;;;;13.15;53.03;100648.78;5095998;27;96735;-35
2022/03/30 11:18:28;;;;;;;12.70;3.80;;;;;;;13.14;52.35;100647.94;5094490;27;96876;-36
2022/03/30 11:21:09;;;;;;;11.05;3.67;;;;;;;13.26;53.42;100639.81;5075754;27;99133;-35
2022/03/30 11:23:39;;;;;;;8.60;2.97;;;;;;;13.22;53.51;100636.47;5095106;27;99292;-36
2022/03/30 11:26:04;;;;;;;12.85;3.47;;;;;;;13.08;53.87;100634.78;5076752;27;96657;-36
2022/03/30 11:28:38;;;;;;;8.68;4.60;;;;;;;13.11;54.19;100626.41;5095390;27;96796;-36
2022/03/30 11:31:18;;;;;;;11.38;3.85;;;;;;;13.14;53.45;100625.31;5076134;27;101059;-35
2022/03/30 11:33:43;;;;;;;8.48;3.78;;;;;;;13.15;53.49;100613.44;5076686;27;101011;-35